Terminal Aerodrome Forecast
Issued by NWS Chicago, IL

Home | Current Version | Previous Version | Graphics & Text | Print | Product List | Glossary On
Versions: 1 2 3 4 5 6 7 8 9 10 11 12 13 14 15 16 17 18 19 20 21
706
FTUS43 KLOT 202335
TAFRFD
TAF
KRFD 202335Z 2100/2124 20015G23KT P6SM BKN250 WS020/22055KT
     FM210400 22012KT P6SM BKN150
     FM211300 30016G25KT P6SM BKN050=

USA.gov is the U.S. government's official web portal to all federal, state and local government web resources and services.